Time;durP1;ratioP1;P1;durP2;ratioP2;P2;SDS_P1;SDS_P2;PMS_P1;PMS_P2;Temp;Humidity;BMP_temperature;BMP_pressure;BME280_temperature;BME280_humidity;BME280_pressure;Samples;Min_cycle;Max_cycle;Signal;HPM_P1;HPM_P2
2022/08/31 00:05:47;;;;;;;2.27;2.07;;;25.90;67.60;;;;;;4955947;28;20507;-78
2022/08/31 00:08:15;;;;;;;2.50;2.23;;;25.90;70.50;;;;;;4955763;28;20668;-77
2022/08/31 00:10:45;;;;;;;2.47;2.27;;;25.90;70.20;;;;;;4950027;28;20464;-78
2022/08/31 00:13:16;;;;;;;2.30;2.10;;;25.90;67.50;;;;;;4957842;28;20458;-78
2022/08/31 00:15:45;;;;;;;2.90;2.40;;;25.80;67.40;;;;;;4947689;28;20563;-78
2022/08/31 00:18:13;;;;;;;2.80;2.00;;;25.80;66.60;;;;;;4955417;28;20443;-78
2022/08/31 00:20:42;;;;;;;2.63;2.43;;;25.80;66.20;;;;;;4948265;28;20467;-79
2022/08/31 00:23:13;;;;;;;2.53;2.23;;;25.80;66.80;;;;;;4952738;28;20979;-78
2022/08/31 00:25:44;;;;;;;3.50;2.33;;;25.80;66.80;;;;;;4951575;28;20494;-79
2022/08/31 00:28:16;;;;;;;3.40;3.03;;;25.90;68.70;;;;;;4954624;28;20479;-78
2022/08/31 00:30:44;;;;;;;3.50;2.50;;;25.80;71.40;;;;;;4953621;28;20759;-79
2022/08/31 00:33:13;;;;;;;4.33;2.70;;;25.70;75.90;;;;;;4952772;28;20464;-79
2022/08/31 00:35:42;;;;;;;3.67;3.03;;;25.70;75.80;;;;;;4954332;28;20550;-78
2022/08/31 00:38:11;;;;;;;4.33;3.10;;;25.70;83.20;;;;;;4954927;28;20460;-78
2022/08/31 00:40:42;;;;;;;6.20;3.13;;;25.60;90.40;;;;;;4949702;28;20469;-76
2022/08/31 00:43:12;;;;;;;3.90;3.30;;;25.50;94.70;;;;;;4951224;28;21015;-79
2022/08/31 00:45:42;;;;;;;4.47;3.60;;;25.40;96.60;;;;;;4949818;28;21367;-78
2022/08/31 00:48:10;;;;;;;6.33;3.50;;;25.30;98.90;;;;;;4960147;28;20523;-77
2022/08/31 00:50:39;;;;;;;4.60;3.13;;;25.10;99.90;;;;;;4948225;28;21042;-77
2022/08/31 00:53:07;;;;;;;5.40;3.73;;;25.00;99.90;;;;;;4952352;28;21001;-76
2022/08/31 00:55:36;;;;;;;9.70;4.00;;;24.90;99.90;;;;;;4950106;28;20489;-78
2022/08/31 00:58:09;;;;;;;5.17;3.93;;;24.90;99.90;;;;;;4952928;28;20451;-79
2022/08/31 01:00:39;;;;;;;7.13;5.17;;;24.80;99.90;;;;;;4953086;28;20464;-77
2022/08/31 01:03:09;;;;;;;4.63;4.23;;;24.70;99.90;;;;;;4950078;28;20456;-78
2022/08/31 01:05:39;;;;;;;5.57;3.80;;;24.60;99.90;;;;;;4954046;28;20575;-78
2022/08/31 01:08:08;;;;;;;6.00;3.90;;;24.60;99.90;;;;;;4957591;28;20507;-79
2022/08/31 01:10:43;;;;;;;4.50;4.10;;;24.50;99.90;;;;;;4956624;28;20462;-78
2022/08/31 01:13:12;;;;;;;5.40;4.10;;;24.50;99.90;;;;;;4952736;28;20788;-78
2022/08/31 01:15:45;;;;;;;4.67;3.73;;;24.40;99.90;;;;;;4948236;28;20490;-78
2022/08/31 01:18:19;;;;;;;3.93;3.43;;;24.40;99.90;;;;;;4952807;28;20449;-78
2022/08/31 01:20:59;;;;;;;5.40;3.73;;;24.30;99.90;;;;;;4953633;28;20752;-80
2022/08/31 01:23:33;;;;;;;4.80;4.10;;;24.30;99.90;;;;;;4951280;28;20544;-78
2022/08/31 01:26:03;;;;;;;4.13;3.77;;;24.30;99.90;;;;;;4950108;28;20483;-77
2022/08/31 01:28:31;;;;;;;5.70;3.40;;;24.20;99.90;;;;;;4945122;28;20495;-77
2022/08/31 01:31:04;;;;;;;5.20;4.37;;;24.10;99.90;;;;;;4953758;28;20503;-77
2022/08/31 01:33:34;;;;;;;4.43;3.70;;;24.10;99.90;;;;;;4955118;28;20869;-77
2022/08/31 01:36:02;;;;;;;4.80;3.93;;;24.00;99.90;;;;;;4946743;28;20975;-78
2022/08/31 01:38:34;;;;;;;3.97;3.63;;;24.00;99.90;;;;;;4955257;28;21057;-79
2022/08/31 01:41:03;;;;;;;3.90;3.50;;;23.90;99.90;;;;;;4949872;28;20546;-79
2022/08/31 01:43:33;;;;;;;4.60;3.50;;;23.90;99.90;;;;;;4958386;28;20451;-79
2022/08/31 01:46:01;;;;;;;5.23;3.90;;;23.90;99.90;;;;;;4952973;28;20472;-80
2022/08/31 01:48:31;;;;;;;4.20;3.80;;;23.90;99.90;;;;;;4959810;28;20493;-79
2022/08/31 01:51:01;;;;;;;4.03;3.73;;;23.90;99.90;;;;;;4955126;28;20455;-79
2022/08/31 01:53:32;;;;;;;3.20;2.90;;;23.90;99.90;;;;;;4952890;28;20455;-78
2022/08/31 01:56:00;;;;;;;5.63;3.30;;;23.70;99.90;;;;;;4949769;28;20463;-79
2022/08/31 01:58:28;;;;;;;4.57;3.50;;;23.40;99.90;;;;;;4950139;28;20456;-78
2022/08/31 02:00:56;;;;;;;4.00;3.60;;;23.50;99.90;;;;;;4948511;28;20463;-78
2022/08/31 02:03:25;;;;;;;4.23;3.63;;;23.60;99.90;;;;;;4952199;28;20455;-79
2022/08/31 02:05:54;;;;;;;6.20;3.90;;;23.70;99.90;;;;;;4950790;28;20480;-80
2022/08/31 02:08:21;;;;;;;3.83;3.40;;;23.70;99.90;;;;;;4958730;28;20483;-79
2022/08/31 02:10:51;;;;;;;4.13;3.80;;;23.70;99.90;;;;;;4949870;28;20472;-79
2022/08/31 02:13:19;;;;;;;5.10;4.60;;;23.80;99.90;;;;;;4957120;28;20463;-79
2022/08/31 02:15:50;;;;;;;4.50;3.80;;;23.80;99.90;;;;;;4949778;28;20479;-79
2022/08/31 02:18:19;;;;;;;5.03;4.50;;;23.80;99.90;;;;;;4959743;28;20454;-79
2022/08/31 02:20:49;;;;;;;4.30;4.00;;;23.80;99.90;;;;;;4947464;28;20472;-79
2022/08/31 02:23:17;;;;;;;4.07;3.67;;;23.70;99.90;;;;;;4959816;28;20466;-79
2022/08/31 02:25:46;;;;;;;4.33;3.70;;;23.70;99.90;;;;;;4947973;28;20487;-78
2022/08/31 02:28:17;;;;;;;5.00;4.20;;;23.70;99.90;;;;;;4957271;28;20497;-79
2022/08/31 02:30:46;;;;;;;5.13;4.03;;;23.70;99.90;;;;;;4952753;28;20464;-79
2022/08/31 02:33:16;;;;;;;4.07;3.67;;;23.70;99.90;;;;;;4956318;28;20529;-79
2022/08/31 02:35:44;;;;;;;4.33;3.93;;;23.60;99.90;;;;;;4948887;28;20640;-80
2022/08/31 02:38:17;;;;;;;5.00;3.87;;;23.60;99.90;;;;;;4953028;28;20470;-79
2022/08/31 02:40:45;;;;;;;7.30;4.40;;;23.60;99.90;;;;;;4949159;28;20483;-79
2022/08/31 02:43:15;;;;;;;4.23;3.83;;;23.60;99.90;;;;;;4957645;28;20470;-78
2022/08/31 02:45:52;;;;;;;5.23;4.70;;;23.60;99.90;;;;;;4949757;28;20574;-79
2022/08/31 02:48:21;;;;;;;5.60;4.80;;;23.70;99.90;;;;;;4957215;28;20521;-79
2022/08/31 02:50:51;;;;;;;4.60;4.27;;;23.60;99.90;;;;;;4950802;28;20531;-78
2022/08/31 02:53:22;;;;;;;6.47;4.27;;;23.60;99.90;;;;;;4955465;28;20463;-78
2022/08/31 02:55:50;;;;;;;5.47;4.97;;;23.60;99.90;;;;;;4948118;28;20491;-79
2022/08/31 02:58:20;;;;;;;5.30;4.43;;;23.60;99.90;;;;;;4956889;28;20459;-80
2022/08/31 03:00:51;;;;;;;6.00;3.90;;;23.60;99.90;;;;;;4949229;28;20558;-79
2022/08/31 03:03:20;;;;;;;4.27;3.97;;;23.60;99.90;;;;;;4955007;28;20460;-78
2022/08/31 03:05:49;;;;;;;4.70;4.10;;;23.60;99.90;;;;;;4949252;28;20541;-79
2022/08/31 03:08:17;;;;;;;6.63;4.30;;;23.50;99.90;;;;;;4958255;28;20490;-78
2022/08/31 03:10:46;;;;;;;5.97;4.63;;;23.50;99.90;;;;;;4947609;28;20539;-79
2022/08/31 03:13:14;;;;;;;4.53;4.10;;;23.50;99.90;;;;;;4952811;28;20929;-79
2022/08/31 03:15:44;;;;;;;4.70;4.30;;;23.50;99.90;;;;;;4948818;28;20523;-78
2022/08/31 03:18:13;;;;;;;5.47;3.97;;;23.50;99.90;;;;;;4952570;28;20467;-80
2022/08/31 03:20:41;;;;;;;5.47;4.50;;;23.50;99.90;;;;;;4951435;28;20500;-78
2022/08/31 03:23:11;;;;;;;7.63;5.90;;;23.40;99.90;;;;;;4959751;28;20462;-81
2022/08/31 03:25:39;;;;;;;8.37;4.27;;;23.40;99.90;;;;;;4953261;28;20478;-78
2022/08/31 03:28:07;;;;;;;5.37;4.67;;;23.40;99.90;;;;;;4961897;28;20474;-78
2022/08/31 03:30:35;;;;;;;4.30;3.90;;;23.40;99.90;;;;;;4950302;28;20470;-79
2022/08/31 03:33:05;;;;;;;5.20;4.70;;;23.40;99.90;;;;;;4961439;28;20452;-78
2022/08/31 03:35:34;;;;;;;7.90;4.37;;;23.40;99.90;;;;;;4952010;28;20486;-79
2022/08/31 03:38:02;;;;;;;5.60;4.77;;;23.40;99.90;;;;;;4956130;28;20866;-78
2022/08/31 03:40:31;;;;;;;6.60;5.10;;;23.50;99.90;;;;;;4960876;28;20977;-78
2022/08/31 03:42:59;;;;;;;4.43;3.83;;;23.50;99.90;;;;;;4953363;28;20496;-79
2022/08/31 03:45:30;;;;;;;4.97;4.37;;;23.50;99.90;;;;;;4951531;28;20497;-79
2022/08/31 03:47:59;;;;;;;5.47;4.97;;;23.40;99.90;;;;;;4957233;28;20979;-79
2022/08/31 03:50:28;;;;;;;5.70;4.53;;;23.40;99.90;;;;;;4946444;28;20455;-78
2022/08/31 03:52:57;;;;;;;5.63;4.60;;;23.40;99.90;;;;;;4955908;28;20461;-79
2022/08/31 03:55:27;;;;;;;4.87;3.90;;;23.30;99.90;;;;;;4946364;28;20557;-79
2022/08/31 03:57:55;;;;;;;4.20;3.80;;;23.30;99.90;;;;;;4953251;28;20464;-78
2022/08/31 04:00:24;;;;;;;4.67;4.27;;;23.20;99.90;;;;;;4945126;28;20449;-80
2022/08/31 04:02:58;;;;;;;4.33;3.93;;;23.10;99.90;;;;;;4948862;28;20464;-79
2022/08/31 04:05:28;;;;;;;4.17;3.77;;;23.10;99.90;;;;;;4948895;28;20485;-78
2022/08/31 04:07:56;;;;;;;4.43;3.90;;;23.20;99.90;;;;;;4960098;28;20452;-78
2022/08/31 04:10:25;;;;;;;6.60;4.77;;;23.30;99.90;;;;;;4957723;28;21258;-78
2022/08/31 04:12:53;;;;;;;5.03;3.93;;;23.30;99.90;;;;;;4949885;28;20464;-79
2022/08/31 04:15:22;;;;;;;4.50;4.10;;;23.20;99.90;;;;;;4949015;28;20869;-78
2022/08/31 04:17:52;;;;;;;5.00;4.00;;;23.20;99.90;;;;;;4953220;28;20531;-79
2022/08/31 04:20:24;;;;;;;4.77;4.20;;;23.20;99.90;;;;;;4956745;28;20487;-79
2022/08/31 04:22:58;;;;;;;5.80;4.60;;;23.20;99.90;;;;;;4960802;28;20456;-79
2022/08/31 04:25:26;;;;;;;3.50;3.20;;;23.20;99.90;;;;;;4953665;28;20784;-78
2022/08/31 04:27:55;;;;;;;4.00;3.60;;;23.10;99.90;;;;;;4949142;28;20456;-78
2022/08/31 04:30:25;;;;;;;5.93;4.10;;;23.10;99.90;;;;;;4950620;28;20570;-77
2022/08/31 04:32:54;;;;;;;5.43;4.93;;;23.20;99.90;;;;;;4959077;28;20527;-77
2022/08/31 04:35:22;;;;;;;5.17;4.00;;;23.20;99.90;;;;;;4946980;28;21566;-77
2022/08/31 04:37:50;;;;;;;3.40;3.10;;;23.20;99.90;;;;;;4953928;28;20461;-77
2022/08/31 04:40:20;;;;;;;4.33;3.90;;;23.20;99.90;;;;;;4957615;28;21212;-77
2022/08/31 04:42:53;;;;;;;4.73;3.80;;;23.20;99.90;;;;;;4946814;28;21123;-77
2022/08/31 04:45:22;;;;;;;3.73;3.50;;;23.10;99.90;;;;;;4947756;28;20488;-77
2022/08/31 04:47:50;;;;;;;3.17;2.90;;;23.10;99.90;;;;;;4955057;28;21032;-78
2022/08/31 04:50:19;;;;;;;4.10;3.67;;;23.10;99.90;;;;;;4967133;28;20930;-80
2022/08/31 04:52:49;;;;;;;4.70;4.17;;;23.10;99.90;;;;;;4954215;28;20483;-79
2022/08/31 04:55:32;;;;;;;5.00;3.33;;;23.10;99.90;;;;;;4955170;28;20467;-77
2022/08/31 04:58:00;;;;;;;4.63;4.10;;;23.10;99.90;;;;;;4960549;28;20468;-76
2022/08/31 05:00:28;;;;;;;3.93;3.63;;;23.10;99.90;;;;;;4952892;28;20463;-79
2022/08/31 05:02:56;;;;;;;4.90;3.43;;;23.00;99.90;;;;;;4947015;28;20452;-79
2022/08/31 05:05:24;;;;;;;4.30;3.90;;;23.00;99.90;;;;;;4950017;28;20521;-78
2022/08/31 05:07:52;;;;;;;4.50;3.10;;;23.00;99.90;;;;;;4953072;28;20467;-78
2022/08/31 05:10:22;;;;;;;3.57;3.27;;;22.90;99.90;;;;;;4948908;28;20475;-79
2022/08/31 05:12:51;;;;;;;4.07;3.67;;;22.90;99.90;;;;;;4950229;28;20468;-79
2022/08/31 05:15:19;;;;;;;5.07;3.73;;;22.90;99.90;;;;;;4955198;28;20554;-77
2022/08/31 05:17:47;;;;;;;3.90;3.60;;;22.90;99.90;;;;;;4958056;28;20838;-78
2022/08/31 05:20:16;;;;;;;3.73;3.43;;;22.90;99.90;;;;;;4953251;28;20809;-79
2022/08/31 05:22:44;;;;;;;4.10;3.40;;;23.00;99.90;;;;;;4956264;28;20462;-78
2022/08/31 05:25:12;;;;;;;3.70;3.20;;;23.00;99.90;;;;;;4956438;28;20480;-77
2022/08/31 05:27:41;;;;;;;4.40;3.40;;;23.00;99.90;;;;;;4954723;28;20474;-79
2022/08/31 05:30:11;;;;;;;4.13;3.73;;;22.90;99.90;;;;;;4955438;28;20698;-79
2022/08/31 05:32:40;;;;;;;3.00;2.70;;;22.90;99.90;;;;;;4957884;28;20446;-80
2022/08/31 05:35:08;;;;;;;4.40;3.50;;;22.90;99.90;;;;;;4960363;28;20486;-77
2022/08/31 05:37:36;;;;;;;4.23;3.20;;;22.90;99.90;;;;;;4956705;28;20474;-81
2022/08/31 05:40:05;;;;;;;3.03;2.70;;;22.80;99.90;;;;;;4955646;28;20447;-77
2022/08/31 05:42:34;;;;;;;3.67;3.13;;;22.80;99.90;;;;;;4956687;28;20454;-80
2022/08/31 05:45:02;;;;;;;3.87;3.57;;;22.80;99.90;;;;;;4954723;28;20479;-79
2022/08/31 05:47:31;;;;;;;5.40;3.70;;;22.80;99.90;;;;;;4952933;28;20467;-82
2022/08/31 05:49:59;;;;;;;3.70;3.40;;;22.80;99.90;;;;;;4951219;28;20971;-79
2022/08/31 05:52:29;;;;;;;3.10;2.83;;;22.80;99.90;;;;;;4958511;28;20450;-81
2022/08/31 05:54:57;;;;;;;4.10;2.87;;;22.80;99.90;;;;;;4946599;28;20514;-78
2022/08/31 05:57:25;;;;;;;3.63;2.87;;;22.80;99.90;;;;;;4952696;28;20455;-79
2022/08/31 05:59:53;;;;;;;3.13;2.87;;;22.80;99.90;;;;;;4949953;28;20456;-80
2022/08/31 06:02:26;;;;;;;3.73;3.20;;;22.80;99.90;;;;;;4958797;28;20513;-79
2022/08/31 06:04:58;;;;;;;3.37;2.90;;;22.80;99.90;;;;;;4944523;28;20538;-78
2022/08/31 06:07:26;;;;;;;3.30;2.80;;;22.70;99.90;;;;;;4950700;28;20465;-78
2022/08/31 06:09:54;;;;;;;4.30;3.43;;;22.60;99.90;;;;;;4948004;28;20484;-79
2022/08/31 06:12:25;;;;;;;4.10;3.30;;;22.40;99.90;;;;;;4958879;28;20462;-79
2022/08/31 06:14:54;;;;;;;3.50;3.17;;;22.40;99.90;;;;;;4952452;28;20947;-78
2022/08/31 06:17:23;;;;;;;3.10;2.77;;;22.40;99.90;;;;;;4958404;28;20963;-79
2022/08/31 06:19:51;;;;;;;4.03;3.63;;;22.50;99.90;;;;;;4949425;28;20463;-81
2022/08/31 06:22:22;;;;;;;7.47;3.87;;;22.60;99.90;;;;;;4955198;28;20867;-76
2022/08/31 06:24:50;;;;;;;9.17;2.93;;;22.50;99.90;;;;;;4949556;28;20466;-73
2022/08/31 06:27:19;;;;;;;2.80;2.57;;;22.50;99.90;;;;;;4949870;28;20451;-73
2022/08/31 06:29:48;;;;;;;3.03;2.83;;;22.50;99.90;;;;;;4948317;28;20484;-73
2022/08/31 06:32:16;;;;;;;3.30;3.03;;;22.50;99.90;;;;;;4948443;28;20472;-74
2022/08/31 06:34:44;;;;;;;2.70;2.50;;;22.50;99.90;;;;;;4940628;28;20463;-73
2022/08/31 06:37:12;;;;;;;3.10;2.80;;;22.60;99.90;;;;;;4956374;28;20463;-74
2022/08/31 06:39:47;;;;;;;4.40;2.63;;;22.70;99.90;;;;;;4943814;28;20466;-74
2022/08/31 06:42:15;;;;;;;3.20;2.90;;;22.60;99.90;;;;;;4958349;28;20946;-77
2022/08/31 06:44:43;;;;;;;3.63;2.97;;;22.60;99.90;;;;;;4942793;28;20456;-74
2022/08/31 06:47:11;;;;;;;2.80;2.60;;;22.60;99.90;;;;;;4943976;28;20460;-73
2022/08/31 06:49:39;;;;;;;4.90;2.77;;;22.70;99.90;;;;;;4945573;28;20456;-74
2022/08/31 06:52:07;;;;;;;5.00;2.60;;;22.60;99.90;;;;;;4951999;28;20720;-74
2022/08/31 06:54:36;;;;;;;3.10;2.80;;;22.60;99.90;;;;;;4951650;28;20891;-74
2022/08/31 06:57:05;;;;;;;5.63;3.30;;;22.60;99.90;;;;;;4957585;28;20492;-74
2022/08/31 06:59:33;;;;;;;3.13;2.83;;;22.60;99.90;;;;;;4949070;28;20461;-75
2022/08/31 07:02:02;;;;;;;3.80;3.00;;;22.60;99.90;;;;;;4947228;28;20456;-75
2022/08/31 07:04:34;;;;;;;4.00;3.67;;;22.60;99.90;;;;;;4946136;28;20518;-74
2022/08/31 07:07:03;;;;;;;5.03;3.40;;;22.60;99.90;;;;;;4949819;28;20475;-74
2022/08/31 07:09:31;;;;;;;7.50;4.00;;;22.60;99.90;;;;;;4944293;28;20566;-75
2022/08/31 07:11:59;;;;;;;4.30;3.47;;;22.60;99.90;;;;;;4948276;28;20490;-76
2022/08/31 07:14:29;;;;;;;5.37;3.50;;;22.60;99.90;;;;;;4941516;28;20924;-75
2022/08/31 07:16:58;;;;;;;3.50;2.80;;;22.60;99.90;;;;;;4947259;28;20566;-74
2022/08/31 07:19:27;;;;;;;3.83;3.53;;;22.60;99.90;;;;;;4956362;28;20540;-74
2022/08/31 07:21:57;;;;;;;4.30;3.50;;;22.60;99.90;;;;;;4950434;28;20480;-76
2022/08/31 07:24:29;;;;;;;4.73;3.50;;;22.60;99.90;;;;;;4950517;28;20472;-74
2022/08/31 07:26:59;;;;;;;4.37;3.93;;;22.60;99.90;;;;;;4945582;28;20479;-74
2022/08/31 07:29:32;;;;;;;5.40;3.47;;;22.60;99.90;;;;;;4952731;28;20466;-74
2022/08/31 07:32:01;;;;;;;4.63;3.67;;;22.70;99.90;;;;;;4950513;28;20489;-75
2022/08/31 07:34:32;;;;;;;3.93;3.63;;;22.60;99.90;;;;;;4945207;28;20467;-74
2022/08/31 07:42:38;;;;;;;3.30;3.00;;;22.50;99.90;;;;;;4951211;28;20455;-75
2022/08/31 07:45:12;;;;;;;4.10;3.73;;;22.40;99.90;;;;;;4951180;28;20483;-75
2022/08/31 07:47:45;;;;;;;4.77;4.23;;;22.50;99.90;;;;;;4955755;28;20464;-76
2022/08/31 07:50:17;;;;;;;3.80;3.50;;;22.50;99.90;;;;;;4947910;28;20469;-76
2022/08/31 07:52:50;;;;;;;4.30;3.90;;;22.50;99.90;;;;;;4953690;28;20466;-75
2022/08/31 07:55:19;;;;;;;5.20;3.90;;;22.50;99.90;;;;;;4953133;28;20510;-77
2022/08/31 07:57:47;;;;;;;5.30;4.50;;;22.50;99.90;;;;;;4945782;28;20474;-76
2022/08/31 08:00:20;;;;;;;4.30;3.43;;;22.60;99.90;;;;;;4951197;28;20453;-76
2022/08/31 08:02:48;;;;;;;3.83;3.53;;;22.60;99.90;;;;;;4952268;28;20462;-76
2022/08/31 08:05:24;;;;;;;4.00;3.60;;;22.60;99.90;;;;;;4948155;28;20523;-77
2022/08/31 08:07:58;;;;;;;4.53;3.60;;;22.60;1.00;;;;;;4953268;28;20548;-85
2022/08/31 08:10:28;;;;;;;6.97;4.40;;;22.60;99.90;;;;;;4954401;28;20463;-83
2022/08/31 08:13:01;;;;;;;4.30;3.90;;;22.60;1.00;;;;;;4952934;28;20462;-83
2022/08/31 08:15:36;;;;;;;3.93;3.57;;;22.60;99.90;;;;;;4944739;28;20587;-83
2022/08/31 08:18:09;;;;;;;4.10;3.80;;;22.60;99.90;;;;;;4951163;28;20548;-83
2022/08/31 08:20:37;;;;;;;4.70;4.23;;;22.70;1.00;;;;;;4955071;28;20497;-83
2022/08/31 08:23:11;;;;;;;4.10;3.80;;;22.70;1.00;;;;;;4941223;29;20465;-83
2022/08/31 08:25:43;;;;;;;4.50;4.10;;;22.60;1.00;;;;;;4958545;28;21051;-83
2022/08/31 08:28:16;;;;;;;4.93;4.40;;;22.60;1.00;;;;;;4946373;28;20490;-84
2022/08/31 08:31:06;;;;;;;5.30;4.90;;;22.60;1.00;;;;;;4952225;28;20891;-84
2022/08/31 08:33:35;;;;;;;4.70;4.30;;;22.70;1.00;;;;;;4950825;28;20459;-83
2022/08/31 08:36:07;;;;;;;5.10;4.60;;;22.70;99.90;;;;;;4951199;28;20490;-84
2022/08/31 08:38:38;;;;;;;4.90;4.33;;;22.70;99.90;;;;;;4953061;28;20463;-84
2022/08/31 08:41:12;;;;;;;5.70;4.87;;;22.70;1.00;;;;;;4941240;28;20519;-83
2022/08/31 08:43:42;;;;;;;5.53;4.23;;;22.70;99.90;;;;;;4954289;28;20463;-83
2022/08/31 08:46:28;;;;;;;6.47;5.10;;;22.80;99.90;;;;;;4941123;28;21019;-83
2022/08/31 08:49:11;;;;;;;4.83;4.37;;;22.80;99.90;;;;;;4961289;28;20521;-84
2022/08/31 08:51:40;;;;;;;4.93;4.37;;;22.80;99.90;;;;;;4945882;29;21044;-84
2022/08/31 08:54:11;;;;;;;5.20;4.30;;;22.80;99.90;;;;;;4945415;28;20452;-85
2022/08/31 08:56:46;;;;;;;4.20;3.80;;;22.80;99.90;;;;;;4954976;28;20510;-84
2022/08/31 08:59:15;;;;;;;5.47;4.87;;;22.90;99.90;;;;;;4961489;28;20451;-84
2022/08/31 09:02:00;;;;;;;8.03;4.83;;;22.90;99.90;;;;;;4945328;28;20452;-84
2022/08/31 09:04:48;;;;;;;7.37;4.60;;;23.00;99.90;;;;;;4943196;29;20464;-83
2022/08/31 09:07:32;;;;;;;5.47;4.23;;;22.90;99.90;;;;;;4949683;28;20522;-81
2022/08/31 09:10:09;;;;;;;5.40;4.97;;;22.90;99.90;;;;;;4959532;28;20461;-81
2022/08/31 09:12:49;;;;;;;6.33;5.20;;;23.00;99.90;;;;;;4952664;28;20854;-82
2022/08/31 09:15:36;;;;;;;6.23;5.50;;;22.90;99.90;;;;;;4954732;28;20481;-82
2022/08/31 09:18:17;;;;;;;6.23;5.53;;;22.90;1.00;;;;;;4953661;28;20466;-82
2022/08/31 09:21:01;;;;;;;6.13;5.60;;;23.00;1.00;;;;;;4948294;28;20976;-82
2022/08/31 09:23:34;;;;;;;5.80;5.27;;;23.00;99.90;;;;;;4946167;28;20469;-82
2022/08/31 09:26:03;;;;;;;7.00;5.17;;;23.00;1.00;;;;;;4945362;28;20521;-81
2022/08/31 09:28:37;;;;;;;6.53;5.33;;;23.10;1.00;;;;;;4956848;28;20467;-80
2022/08/31 09:31:06;;;;;;;6.47;5.83;;;23.10;1.00;;;;;;4952048;28;20873;-82
2022/08/31 09:33:49;;;;;;;7.80;6.60;;;23.20;1.00;;;;;;4963270;28;20458;-81
2022/08/31 09:36:21;;;;;;;6.73;5.70;;;23.20;99.90;;;;;;4944732;28;20535;-81
2022/08/31 09:38:50;;;;;;;6.10;5.03;;;23.20;99.90;;;;;;4952931;28;20478;-81
2022/08/31 09:41:29;;;;;;;7.00;5.73;;;23.20;99.90;;;;;;4948069;28;20459;-81
2022/08/31 09:44:22;;;;;;;7.43;6.33;;;23.20;99.90;;;;;;4962230;28;20490;-82
2022/08/31 09:46:53;;;;;;;6.93;6.30;;;23.20;99.90;;;;;;4932934;29;20974;-81
2022/08/31 09:49:26;;;;;;;6.40;5.80;;;23.20;99.90;;;;;;4945123;28;20463;-81
2022/08/31 09:52:19;;;;;;;6.77;5.40;;;23.20;99.90;;;;;;4944450;28;20483;-82
2022/08/31 09:55:12;;;;;;;6.83;6.13;;;23.20;99.90;;;;;;4950924;28;20466;-81
2022/08/31 09:57:51;;;;;;;7.50;6.80;;;23.20;1.00;;;;;;4953737;28;20454;-81
2022/08/31 10:00:31;;;;;;;6.63;6.03;;;23.20;99.90;;;;;;4944072;28;20859;-81
2022/08/31 10:03:08;;;;;;;7.43;6.57;;;23.20;1.00;;;;;;4953234;28;20492;-79
2022/08/31 10:05:41;;;;;;;6.07;5.47;;;23.20;99.90;;;;;;4960707;28;21272;-79
2022/08/31 10:08:33;;;;;;;6.70;5.97;;;23.20;1.00;;;;;;4951699;28;20462;-79
2022/08/31 10:11:09;;;;;;;7.30;5.80;;;23.10;99.90;;;;;;4941554;28;20463;-79
2022/08/31 10:13:41;;;;;;;8.83;6.20;;;23.10;1.00;;;;;;4955749;28;20532;-79
2022/08/31 10:16:15;;;;;;;6.20;5.70;;;23.20;99.90;;;;;;4940911;28;20480;-78
2022/08/31 10:18:54;;;;;;;5.93;5.43;;;23.20;99.90;;;;;;4955654;28;20459;-79
2022/08/31 10:21:37;;;;;;;5.60;5.10;;;23.20;99.90;;;;;;4945060;28;20464;-80
2022/08/31 10:24:19;;;;;;;5.73;5.23;;;23.20;1.00;;;;;;4943919;28;21113;-80
2022/08/31 10:26:53;;;;;;;6.03;5.37;;;23.20;99.90;;;;;;4942009;28;20492;-79
2022/08/31 10:29:31;;;;;;;6.33;5.73;;;23.20;99.90;;;;;;4951039;28;20519;-79
2022/08/31 10:32:07;;;;;;;6.00;5.40;;;23.20;99.90;;;;;;4947390;28;20495;-80
2022/08/31 10:37:35;;;;;;;8.40;5.37;;;23.20;99.90;;;;;;4945272;28;20461;-80
2022/08/31 10:40:08;;;;;;;4.67;4.03;;;23.20;99.90;;;;;;4952641;28;20548;-79
2022/08/31 10:42:40;;;;;;;5.77;5.17;;;23.20;99.90;;;;;;4944852;28;20466;-79
2022/08/31 10:45:14;;;;;;;7.60;5.33;;;23.20;99.90;;;;;;4941265;28;20485;-81
2022/08/31 10:47:48;;;;;;;5.40;5.00;;;23.20;99.90;;;;;;4943481;28;20830;-80
2022/08/31 10:50:27;;;;;;;6.10;5.50;;;23.20;99.90;;;;;;4943965;28;20510;-80
2022/08/31 10:53:09;;;;;;;6.30;5.70;;;23.20;99.90;;;;;;4948078;28;20483;-80
2022/08/31 10:55:45;;;;;;;6.57;5.40;;;23.20;99.90;;;;;;4942947;28;20482;-80
2022/08/31 10:58:21;;;;;;;7.30;5.10;;;23.20;99.90;;;;;;4945055;28;20450;-80
2022/08/31 11:00:53;;;;;;;6.73;5.93;;;23.20;99.90;;;;;;4941882;28;20452;-79
2022/08/31 11:03:48;;;;;;;5.80;5.30;;;23.20;99.90;;;;;;4943798;28;20959;-80
2022/08/31 11:06:23;;;;;;;8.73;6.50;;;23.20;99.90;;;;;;4941472;28;21110;-80
2022/08/31 11:08:57;;;;;;;6.50;5.97;;;23.20;99.90;;;;;;4943886;28;20452;-80
2022/08/31 11:11:35;;;;;;;5.87;5.30;;;23.30;99.90;;;;;;4950081;28;20591;-80
2022/08/31 11:14:43;;;;;;;11.87;6.93;;;23.30;99.90;;;;;;4945712;28;20552;-80
2022/08/31 11:17:41;;;;;;;6.20;5.60;;;23.30;99.90;;;;;;4946669;28;20450;-80
2022/08/31 11:20:26;;;;;;;7.53;6.67;;;23.30;99.90;;;;;;4946250;29;20467;-79
2022/08/31 11:23:25;;;;;;;7.37;6.70;;;23.30;99.90;;;;;;4945909;28;21135;-79
2022/08/31 11:26:30;;;;;;;7.67;6.30;;;23.40;99.90;;;;;;4938412;28;20504;-79
2022/08/31 11:29:02;;;;;;;6.87;5.97;;;23.30;99.90;;;;;;4955127;28;20457;-80
2022/08/31 11:31:34;;;;;;;7.00;6.30;;;23.30;99.90;;;;;;4941528;28;20484;-79
2022/08/31 11:34:11;;;;;;;7.50;6.80;;;23.40;99.90;;;;;;4951616;28;20880;-80
2022/08/31 11:36:50;;;;;;;7.70;6.90;;;23.40;99.90;;;;;;4948059;28;20490;-79
2022/08/31 11:39:34;;;;;;;7.20;6.50;;;23.40;99.90;;;;;;4946493;28;20466;-80
2022/08/31 11:42:11;;;;;;;6.30;5.80;;;23.40;99.90;;;;;;4942760;28;20455;-80
2022/08/31 11:44:59;;;;;;;8.00;7.30;;;23.40;99.90;;;;;;4952419;28;20750;-80
2022/08/31 11:47:43;;;;;;;7.30;6.60;;;23.40;99.90;;;;;;4948301;28;20466;-79
2022/08/31 11:50:27;;;;;;;8.03;7.30;;;23.20;99.90;;;;;;4956798;28;20454;-80
2022/08/31 11:52:58;;;;;;;9.67;8.27;;;23.40;99.90;;;;;;4951226;28;20494;-79
2022/08/31 11:55:28;;;;;;;14.03;7.90;;;23.40;99.90;;;;;;4952672;28;20904;-79
2022/08/31 11:58:18;;;;;;;7.60;6.70;;;23.40;99.90;;;;;;4953291;28;20471;-80
2022/08/31 12:00:56;;;;;;;6.80;6.30;;;23.40;99.90;;;;;;4955505;28;20455;-80
2022/08/31 12:03:42;;;;;;;7.70;6.90;;;23.40;99.90;;;;;;4952711;28;20461;-79
2022/08/31 12:06:27;;;;;;;8.07;6.60;;;23.40;99.90;;;;;;4949088;28;20561;-80
2022/08/31 12:09:09;;;;;;;7.67;6.87;;;23.50;99.90;;;;;;4951455;28;20569;-79
2022/08/31 12:11:46;;;;;;;7.33;6.60;;;23.50;99.90;;;;;;4952492;28;20498;-79
2022/08/31 12:14:24;;;;;;;6.73;6.13;;;23.50;99.90;;;;;;4942454;28;20475;-79
2022/08/31 12:17:02;;;;;;;8.90;7.87;;;23.60;99.90;;;;;;4942678;28;20673;-79
2022/08/31 12:19:59;;;;;;;6.70;6.20;;;23.60;99.90;;;;;;4951585;28;20482;-79
2022/08/31 12:26:22;;;;;;;6.77;5.93;;;23.60;99.90;;;;;;4957715;28;20568;-81
2022/08/31 12:29:19;;;;;;;6.80;6.30;;;23.60;99.90;;;;;;4954160;28;20487;-80
2022/08/31 12:32:06;;;;;;;6.80;6.30;;;23.60;99.90;;;;;;4949603;28;20456;-80
2022/08/31 12:34:40;;;;;;;7.03;6.33;;;23.50;99.90;;;;;;4958173;28;20496;-80
2022/08/31 12:37:23;;;;;;;7.63;6.10;;;23.60;99.90;;;;;;4942192;28;20479;-78
2022/08/31 12:40:07;;;;;;;7.20;6.23;;;23.70;99.90;;;;;;4951170;28;20866;-80
2022/08/31 12:42:40;;;;;;;9.17;7.33;;;23.60;99.90;;;;;;4960601;28;20553;-79
2022/08/31 12:45:14;;;;;;;6.20;5.60;;;23.70;99.90;;;;;;4952444;28;20628;-79
2022/08/31 12:47:54;;;;;;;6.33;5.83;;;23.70;99.90;;;;;;4944853;28;20465;-80
2022/08/31 12:50:28;;;;;;;7.93;5.10;;;23.70;99.90;;;;;;4943337;28;20459;-80
2022/08/31 12:53:35;;;;;;;6.70;5.87;;;23.70;99.90;;;;;;4957341;28;20469;-80
2022/08/31 12:56:11;;;;;;;5.43;4.93;;;23.70;99.90;;;;;;4954939;28;20513;-80
2022/08/31 12:58:55;;;;;;;7.37;6.20;;;23.70;99.90;;;;;;4955706;28;20513;-81
2022/08/31 13:01:26;;;;;;;7.20;4.90;;;23.80;99.90;;;;;;4936004;28;20557;-80
2022/08/31 13:03:59;;;;;;;6.03;5.53;;;23.80;99.90;;;;;;4950986;28;20474;-79
2022/08/31 13:06:30;;;;;;;7.07;5.07;;;23.80;99.90;;;;;;4941565;28;20495;-80
2022/08/31 13:09:00;;;;;;;6.93;6.20;;;23.90;99.90;;;;;;4954015;28;20518;-80
2022/08/31 13:11:34;;;;;;;5.33;4.80;;;23.80;99.90;;;;;;4952211;28;20815;-80
2022/08/31 13:14:12;;;;;;;6.87;6.33;;;23.80;99.90;;;;;;4941176;28;20481;-80
2022/08/31 13:16:45;;;;;;;6.30;5.47;;;23.80;99.90;;;;;;4936497;28;20476;-80
2022/08/31 13:19:22;;;;;;;5.47;5.07;;;23.80;99.90;;;;;;4947813;28;20540;-81
2022/08/31 13:21:53;;;;;;;7.30;5.23;;;23.80;99.90;;;;;;4951470;28;20455;-80
2022/08/31 13:24:27;;;;;;;6.33;5.00;;;23.90;99.90;;;;;;4957841;28;20458;-81
2022/08/31 13:27:07;;;;;;;6.20;5.60;;;23.80;99.90;;;;;;4955012;28;20493;-80
2022/08/31 13:29:43;;;;;;;6.00;5.40;;;23.90;99.90;;;;;;4949236;28;20451;-83
2022/08/31 13:32:30;;;;;;;7.10;6.50;;;23.90;99.90;;;;;;4939802;28;21138;-84
2022/08/31 13:35:01;;;;;;;5.47;4.97;;;23.90;99.90;;;;;;4936417;28;20497;-82